sensor_id;sensor_type;location;lat;lon;timestamp;P1;durP1;ratioP1;P2;durP2;ratioP2
22937;SDS011;11634;42.734;23.298;2022-12-07T00:01:42;25.52;;;16.00;;
22937;SDS011;11634;42.734;23.298;2022-12-07T00:04:16;26.33;;;16.70;;
22937;SDS011;11634;42.734;23.298;2022-12-07T00:06:45;26.67;;;16.95;;
22937;SDS011;11634;42.734;23.298;2022-12-07T00:09:17;30.63;;;17.80;;
22937;SDS011;11634;42.734;23.298;2022-12-07T00:11:43;33.45;;;18.60;;
22937;SDS011;11634;42.734;23.298;2022-12-07T00:14:16;33.97;;;18.92;;
22937;SDS011;11634;42.734;23.298;2022-12-07T00:16:42;32.25;;;19.88;;
22937;SDS011;11634;42.734;23.298;2022-12-07T00:19:09;32.88;;;19.23;;
22937;SDS011;11634;42.734;23.298;2022-12-07T00:21:36;31.15;;;18.83;;
22937;SDS011;11634;42.734;23.298;2022-12-07T00:24:02;31.77;;;19.25;;
22937;SDS011;11634;42.734;23.298;2022-12-07T00:26:33;30.35;;;18.08;;
22937;SDS011;11634;42.734;23.298;2022-12-07T00:29:04;29.48;;;17.45;;
22937;SDS011;11634;42.734;23.298;2022-12-07T00:31:37;30.35;;;18.40;;
22937;SDS011;11634;42.734;23.298;2022-12-07T00:34:07;29.92;;;17.45;;
22937;SDS011;11634;42.734;23.298;2022-12-07T00:36:40;29.42;;;18.33;;
22937;SDS011;11634;42.734;23.298;2022-12-07T00:39:06;31.10;;;17.02;;
22937;SDS011;11634;42.734;23.298;2022-12-07T00:41:32;28.38;;;16.85;;
22937;SDS011;11634;42.734;23.298;2022-12-07T00:43:57;30.15;;;18.67;;
22937;SDS011;11634;42.734;23.298;2022-12-07T00:46:23;30.00;;;17.73;;
22937;SDS011;11634;42.734;23.298;2022-12-07T00:48:50;28.25;;;17.50;;
22937;SDS011;11634;42.734;23.298;2022-12-07T00:51:17;33.33;;;19.17;;
22937;SDS011;11634;42.734;23.298;2022-12-07T00:53:44;31.35;;;17.70;;
22937;SDS011;11634;42.734;23.298;2022-12-07T00:56:18;29.23;;;17.83;;
22937;SDS011;11634;42.734;23.298;2022-12-07T00:58:52;29.08;;;16.30;;
22937;SDS011;11634;42.734;23.298;2022-12-07T01:01:22;28.92;;;17.33;;
22937;SDS011;11634;42.734;23.298;2022-12-07T01:03:50;32.45;;;19.17;;
22937;SDS011;11634;42.734;23.298;2022-12-07T01:06:16;26.90;;;17.23;;
22937;SDS011;11634;42.734;23.298;2022-12-07T01:08:43;26.75;;;16.92;;
22937;SDS011;11634;42.734;23.298;2022-12-07T01:11:11;26.27;;;17.13;;
22937;SDS011;11634;42.734;23.298;2022-12-07T01:13:39;29.85;;;17.55;;
22937;SDS011;11634;42.734;23.298;2022-12-07T01:16:05;27.23;;;17.10;;
22937;SDS011;11634;42.734;23.298;2022-12-07T01:21:15;27.80;;;17.08;;
22937;SDS011;11634;42.734;23.298;2022-12-07T01:23:45;23.83;;;15.23;;
22937;SDS011;11634;42.734;23.298;2022-12-07T01:26:15;24.05;;;15.05;;
22937;SDS011;11634;42.734;23.298;2022-12-07T01:28:42;26.90;;;16.08;;
22937;SDS011;11634;42.734;23.298;2022-12-07T01:31:09;27.48;;;16.45;;
22937;SDS011;11634;42.734;23.298;2022-12-07T01:33:37;24.17;;;15.82;;
22937;SDS011;11634;42.734;23.298;2022-12-07T01:36:04;26.50;;;16.83;;
22937;SDS011;11634;42.734;23.298;2022-12-07T01:38:46;24.00;;;14.70;;
22937;SDS011;11634;42.734;23.298;2022-12-07T01:41:14;28.63;;;16.65;;
22937;SDS011;11634;42.734;23.298;2022-12-07T01:46:50;27.58;;;16.80;;
22937;SDS011;11634;42.734;23.298;2022-12-07T01:49:37;26.60;;;15.57;;
22937;SDS011;11634;42.734;23.298;2022-12-07T01:52:27;28.00;;;15.88;;
22937;SDS011;11634;42.734;23.298;2022-12-07T01:54:57;28.55;;;15.68;;
22937;SDS011;11634;42.734;23.298;2022-12-07T01:57:26;26.33;;;16.45;;
22937;SDS011;11634;42.734;23.298;2022-12-07T01:59:53;29.48;;;17.33;;
22937;SDS011;11634;42.734;23.298;2022-12-07T02:02:27;26.30;;;16.60;;
22937;SDS011;11634;42.734;23.298;2022-12-07T02:04:59;26.63;;;16.15;;
22937;SDS011;11634;42.734;23.298;2022-12-07T02:07:29;26.70;;;16.48;;
22937;SDS011;11634;42.734;23.298;2022-12-07T02:09:57;30.02;;;17.13;;
22937;SDS011;11634;42.734;23.298;2022-12-07T02:12:42;24.38;;;15.68;;
22937;SDS011;11634;42.734;23.298;2022-12-07T02:15:14;24.00;;;15.68;;
22937;SDS011;11634;42.734;23.298;2022-12-07T02:28:34;29.65;;;17.23;;
22937;SDS011;11634;42.734;23.298;2022-12-07T02:31:12;26.33;;;17.00;;
22937;SDS011;11634;42.734;23.298;2022-12-07T02:33:52;28.83;;;18.38;;
22937;SDS011;11634;42.734;23.298;2022-12-07T02:36:29;31.85;;;20.05;;
22937;SDS011;11634;42.734;23.298;2022-12-07T02:39:06;29.20;;;18.60;;
22937;SDS011;11634;42.734;23.298;2022-12-07T02:41:47;33.28;;;18.70;;
22937;SDS011;11634;42.734;23.298;2022-12-07T02:44:20;28.63;;;18.98;;
22937;SDS011;11634;42.734;23.298;2022-12-07T02:46:53;29.48;;;18.27;;
22937;SDS011;11634;42.734;23.298;2022-12-07T02:49:24;32.10;;;19.42;;
22937;SDS011;11634;42.734;23.298;2022-12-07T02:51:53;29.50;;;18.00;;
22937;SDS011;11634;42.734;23.298;2022-12-07T02:54:19;36.75;;;19.90;;
22937;SDS011;11634;42.734;23.298;2022-12-07T02:56:48;31.35;;;18.88;;
22937;SDS011;11634;42.734;23.298;2022-12-07T03:11:00;28.45;;;18.55;;
22937;SDS011;11634;42.734;23.298;2022-12-07T03:13:49;31.67;;;18.90;;
22937;SDS011;11634;42.734;23.298;2022-12-07T03:16:41;32.42;;;19.45;;
22937;SDS011;11634;42.734;23.298;2022-12-07T03:19:17;36.95;;;20.67;;
22937;SDS011;11634;42.734;23.298;2022-12-07T03:21:52;33.33;;;19.38;;
22937;SDS011;11634;42.734;23.298;2022-12-07T03:24:23;31.15;;;18.02;;
22937;SDS011;11634;42.734;23.298;2022-12-07T03:26:53;33.47;;;19.15;;
22937;SDS011;11634;42.734;23.298;2022-12-07T03:29:27;34.85;;;19.55;;
22937;SDS011;11634;42.734;23.298;2022-12-07T03:32:01;29.20;;;18.88;;
22937;SDS011;11634;42.734;23.298;2022-12-07T03:35:16;32.08;;;19.85;;
22937;SDS011;11634;42.734;23.298;2022-12-07T03:40:18;32.05;;;19.05;;
22937;SDS011;11634;42.734;23.298;2022-12-07T03:42:49;29.30;;;19.42;;
22937;SDS011;11634;42.734;23.298;2022-12-07T03:45:17;33.42;;;18.88;;
22937;SDS011;11634;42.734;23.298;2022-12-07T03:50:28;36.30;;;19.60;;
22937;SDS011;11634;42.734;23.298;2022-12-07T03:53:00;34.28;;;19.42;;
22937;SDS011;11634;42.734;23.298;2022-12-07T03:55:35;35.60;;;20.08;;
22937;SDS011;11634;42.734;23.298;2022-12-07T03:58:09;31.83;;;19.52;;
22937;SDS011;11634;42.734;23.298;2022-12-07T04:00:37;30.40;;;18.50;;
22937;SDS011;11634;42.734;23.298;2022-12-07T04:03:03;30.88;;;19.27;;
22937;SDS011;11634;42.734;23.298;2022-12-07T04:05:29;32.38;;;18.33;;
22937;SDS011;11634;42.734;23.298;2022-12-07T04:07:54;31.63;;;19.92;;
22937;SDS011;11634;42.734;23.298;2022-12-07T04:10:20;32.28;;;18.85;;
22937;SDS011;11634;42.734;23.298;2022-12-07T04:12:48;29.65;;;18.20;;
22937;SDS011;11634;42.734;23.298;2022-12-07T04:15:14;30.00;;;18.40;;
22937;SDS011;11634;42.734;23.298;2022-12-07T04:17:40;31.42;;;19.30;;
22937;SDS011;11634;42.734;23.298;2022-12-07T04:20:06;34.33;;;19.13;;
22937;SDS011;11634;42.734;23.298;2022-12-07T04:22:32;30.77;;;19.33;;
22937;SDS011;11634;42.734;23.298;2022-12-07T04:24:58;32.72;;;19.75;;
22937;SDS011;11634;42.734;23.298;2022-12-07T04:27:23;33.92;;;19.42;;
22937;SDS011;11634;42.734;23.298;2022-12-07T04:29:49;31.10;;;20.05;;
22937;SDS011;11634;42.734;23.298;2022-12-07T04:32:14;34.45;;;20.85;;
22937;SDS011;11634;42.734;23.298;2022-12-07T04:34:40;30.35;;;18.58;;
22937;SDS011;11634;42.734;23.298;2022-12-07T04:37:06;33.15;;;19.90;;
22937;SDS011;11634;42.734;23.298;2022-12-07T04:39:32;35.05;;;21.15;;
22937;SDS011;11634;42.734;23.298;2022-12-07T04:41:59;35.90;;;22.15;;
22937;SDS011;11634;42.734;23.298;2022-12-07T04:44:26;38.58;;;24.25;;
22937;SDS011;11634;42.734;23.298;2022-12-07T04:46:52;38.22;;;21.63;;
22937;SDS011;11634;42.734;23.298;2022-12-07T04:49:19;37.72;;;22.48;;
22937;SDS011;11634;42.734;23.298;2022-12-07T04:51:45;38.17;;;21.95;;
22937;SDS011;11634;42.734;23.298;2022-12-07T04:54:11;43.13;;;26.95;;
22937;SDS011;11634;42.734;23.298;2022-12-07T04:56:38;58.72;;;33.13;;
22937;SDS011;11634;42.734;23.298;2022-12-07T04:59:03;49.78;;;29.15;;
22937;SDS011;11634;42.734;23.298;2022-12-07T05:01:30;41.00;;;24.48;;
22937;SDS011;11634;42.734;23.298;2022-12-07T05:03:56;37.88;;;22.92;;
22937;SDS011;11634;42.734;23.298;2022-12-07T05:06:21;41.05;;;23.58;;
22937;SDS011;11634;42.734;23.298;2022-12-07T05:08:47;41.10;;;26.55;;
22937;SDS011;11634;42.734;23.298;2022-12-07T05:11:13;49.47;;;28.33;;
22937;SDS011;11634;42.734;23.298;2022-12-07T05:13:59;54.83;;;34.22;;
22937;SDS011;11634;42.734;23.298;2022-12-07T05:16:25;58.42;;;34.08;;
22937;SDS011;11634;42.734;23.298;2022-12-07T05:18:50;55.40;;;32.35;;
22937;SDS011;11634;42.734;23.298;2022-12-07T05:21:18;49.88;;;30.55;;
22937;SDS011;11634;42.734;23.298;2022-12-07T05:23:43;50.45;;;30.27;;
22937;SDS011;11634;42.734;23.298;2022-12-07T05:26:09;57.63;;;33.88;;
22937;SDS011;11634;42.734;23.298;2022-12-07T05:28:35;54.17;;;32.65;;
22937;SDS011;11634;42.734;23.298;2022-12-07T05:31:01;56.13;;;31.30;;
22937;SDS011;11634;42.734;23.298;2022-12-07T05:33:26;56.42;;;33.05;;
22937;SDS011;11634;42.734;23.298;2022-12-07T05:35:52;55.70;;;34.13;;
22937;SDS011;11634;42.734;23.298;2022-12-07T05:38:17;55.08;;;32.85;;
22937;SDS011;11634;42.734;23.298;2022-12-07T05:40:43;56.40;;;32.83;;
22937;SDS011;11634;42.734;23.298;2022-12-07T05:43:08;55.42;;;33.47;;
22937;SDS011;11634;42.734;23.298;2022-12-07T05:45:34;130.02;;;76.28;;
22937;SDS011;11634;42.734;23.298;2022-12-07T05:47:59;64.30;;;36.58;;
22937;SDS011;11634;42.734;23.298;2022-12-07T05:50:25;56.55;;;33.97;;
22937;SDS011;11634;42.734;23.298;2022-12-07T05:52:59;54.53;;;31.70;;
22937;SDS011;11634;42.734;23.298;2022-12-07T05:55:24;53.47;;;32.70;;
22937;SDS011;11634;42.734;23.298;2022-12-07T05:57:50;56.20;;;31.90;;
22937;SDS011;11634;42.734;23.298;2022-12-07T06:00:34;55.97;;;32.22;;
22937;SDS011;11634;42.734;23.298;2022-12-07T06:02:59;53.65;;;31.50;;
22937;SDS011;11634;42.734;23.298;2022-12-07T06:05:25;54.33;;;30.88;;
22937;SDS011;11634;42.734;23.298;2022-12-07T06:07:50;50.60;;;27.20;;
22937;SDS011;11634;42.734;23.298;2022-12-07T06:10:16;46.10;;;28.17;;
22937;SDS011;11634;42.734;23.298;2022-12-07T06:12:43;51.47;;;30.67;;
22937;SDS011;11634;42.734;23.298;2022-12-07T06:15:12;49.47;;;28.67;;
22937;SDS011;11634;42.734;23.298;2022-12-07T06:17:38;47.83;;;28.45;;
22937;SDS011;11634;42.734;23.298;2022-12-07T06:20:04;52.65;;;30.98;;
22937;SDS011;11634;42.734;23.298;2022-12-07T06:22:31;49.05;;;27.70;;
22937;SDS011;11634;42.734;23.298;2022-12-07T06:24:56;49.75;;;27.10;;
22937;SDS011;11634;42.734;23.298;2022-12-07T06:27:22;46.65;;;27.38;;
22937;SDS011;11634;42.734;23.298;2022-12-07T06:29:49;41.60;;;25.63;;
22937;SDS011;11634;42.734;23.298;2022-12-07T06:32:14;43.80;;;25.13;;
22937;SDS011;11634;42.734;23.298;2022-12-07T06:34:42;49.58;;;28.38;;
22937;SDS011;11634;42.734;23.298;2022-12-07T06:37:07;45.08;;;27.00;;
22937;SDS011;11634;42.734;23.298;2022-12-07T06:39:33;48.85;;;29.00;;
22937;SDS011;11634;42.734;23.298;2022-12-07T06:41:59;45.70;;;29.25;;
22937;SDS011;11634;42.734;23.298;2022-12-07T06:44:24;47.53;;;28.90;;
22937;SDS011;11634;42.734;23.298;2022-12-07T06:46:53;51.20;;;29.48;;
22937;SDS011;11634;42.734;23.298;2022-12-07T06:49:18;45.13;;;28.92;;
22937;SDS011;11634;42.734;23.298;2022-12-07T06:51:44;44.38;;;27.25;;
22937;SDS011;11634;42.734;23.298;2022-12-07T06:54:10;44.08;;;26.25;;
22937;SDS011;11634;42.734;23.298;2022-12-07T06:56:37;46.33;;;27.50;;
22937;SDS011;11634;42.734;23.298;2022-12-07T06:59:04;46.20;;;27.08;;
22937;SDS011;11634;42.734;23.298;2022-12-07T07:01:32;45.83;;;26.70;;
22937;SDS011;11634;42.734;23.298;2022-12-07T07:03:59;48.85;;;30.00;;
22937;SDS011;11634;42.734;23.298;2022-12-07T07:06:24;61.47;;;38.17;;
22937;SDS011;11634;42.734;23.298;2022-12-07T07:08:51;52.35;;;32.17;;
22937;SDS011;11634;42.734;23.298;2022-12-07T07:11:17;51.60;;;30.92;;
22937;SDS011;11634;42.734;23.298;2022-12-07T07:13:43;45.85;;;29.30;;
22937;SDS011;11634;42.734;23.298;2022-12-07T07:16:10;45.30;;;28.40;;
22937;SDS011;11634;42.734;23.298;2022-12-07T07:18:35;45.65;;;28.02;;
22937;SDS011;11634;42.734;23.298;2022-12-07T07:21:04;42.60;;;26.17;;
22937;SDS011;11634;42.734;23.298;2022-12-07T07:23:30;69.93;;;38.42;;
22937;SDS011;11634;42.734;23.298;2022-12-07T07:25:55;61.67;;;34.70;;
22937;SDS011;11634;42.734;23.298;2022-12-07T07:28:21;58.58;;;34.80;;
22937;SDS011;11634;42.734;23.298;2022-12-07T07:30:47;49.25;;;31.23;;
22937;SDS011;11634;42.734;23.298;2022-12-07T07:33:14;64.15;;;34.47;;
22937;SDS011;11634;42.734;23.298;2022-12-07T07:35:40;59.25;;;33.47;;
22937;SDS011;11634;42.734;23.298;2022-12-07T07:38:07;64.95;;;36.13;;
22937;SDS011;11634;42.734;23.298;2022-12-07T07:40:32;59.40;;;35.70;;
22937;SDS011;11634;42.734;23.298;2022-12-07T07:43:00;57.17;;;33.28;;
22937;SDS011;11634;42.734;23.298;2022-12-07T07:45:26;50.72;;;31.98;;
22937;SDS011;11634;42.734;23.298;2022-12-07T07:47:52;53.65;;;32.40;;
22937;SDS011;11634;42.734;23.298;2022-12-07T07:50:18;51.25;;;31.42;;
22937;SDS011;11634;42.734;23.298;2022-12-07T07:52:45;45.72;;;25.00;;
22937;SDS011;11634;42.734;23.298;2022-12-07T07:55:11;41.45;;;25.85;;
22937;SDS011;11634;42.734;23.298;2022-12-07T07:57:37;41.92;;;26.08;;
22937;SDS011;11634;42.734;23.298;2022-12-07T08:00:04;43.50;;;27.02;;
22937;SDS011;11634;42.734;23.298;2022-12-07T08:02:37;44.80;;;27.35;;
22937;SDS011;11634;42.734;23.298;2022-12-07T08:05:03;42.03;;;26.63;;
22937;SDS011;11634;42.734;23.298;2022-12-07T08:07:29;46.08;;;27.83;;
22937;SDS011;11634;42.734;23.298;2022-12-07T08:09:55;52.03;;;27.80;;
22937;SDS011;11634;42.734;23.298;2022-12-07T08:12:20;49.78;;;29.20;;
22937;SDS011;11634;42.734;23.298;2022-12-07T08:14:47;50.88;;;31.10;;
22937;SDS011;11634;42.734;23.298;2022-12-07T08:17:13;48.70;;;31.60;;
22937;SDS011;11634;42.734;23.298;2022-12-07T08:19:38;50.17;;;30.10;;
22937;SDS011;11634;42.734;23.298;2022-12-07T08:22:04;55.10;;;30.58;;
22937;SDS011;11634;42.734;23.298;2022-12-07T08:24:34;46.47;;;30.17;;
22937;SDS011;11634;42.734;23.298;2022-12-07T08:27:00;50.17;;;31.75;;
22937;SDS011;11634;42.734;23.298;2022-12-07T08:29:27;54.80;;;31.80;;
22937;SDS011;11634;42.734;23.298;2022-12-07T08:31:54;53.30;;;31.63;;
22937;SDS011;11634;42.734;23.298;2022-12-07T08:34:20;48.22;;;32.10;;
22937;SDS011;11634;42.734;23.298;2022-12-07T08:36:45;50.55;;;32.00;;
22937;SDS011;11634;42.734;23.298;2022-12-07T08:39:11;57.38;;;33.55;;
22937;SDS011;11634;42.734;23.298;2022-12-07T08:41:36;51.95;;;32.45;;
22937;SDS011;11634;42.734;23.298;2022-12-07T08:44:02;50.85;;;32.00;;
22937;SDS011;11634;42.734;23.298;2022-12-07T08:46:38;49.17;;;30.50;;
22937;SDS011;11634;42.734;23.298;2022-12-07T08:49:18;52.95;;;31.33;;
22937;SDS011;11634;42.734;23.298;2022-12-07T08:51:48;46.03;;;30.13;;
22937;SDS011;11634;42.734;23.298;2022-12-07T08:54:16;48.88;;;31.17;;
22937;SDS011;11634;42.734;23.298;2022-12-07T08:56:43;52.10;;;30.45;;
22937;SDS011;11634;42.734;23.298;2022-12-07T08:59:17;48.55;;;30.40;;
22937;SDS011;11634;42.734;23.298;2022-12-07T09:01:46;51.22;;;30.95;;
22937;SDS011;11634;42.734;23.298;2022-12-07T09:04:11;45.83;;;28.45;;
22937;SDS011;11634;42.734;23.298;2022-12-07T09:06:38;38.00;;;25.35;;
22937;SDS011;11634;42.734;23.298;2022-12-07T09:09:04;42.47;;;28.45;;
22937;SDS011;11634;42.734;23.298;2022-12-07T09:11:29;43.88;;;27.65;;
22937;SDS011;11634;42.734;23.298;2022-12-07T09:13:55;43.08;;;25.48;;
22937;SDS011;11634;42.734;23.298;2022-12-07T09:16:22;42.65;;;27.30;;
22937;SDS011;11634;42.734;23.298;2022-12-07T09:18:47;47.33;;;27.92;;
22937;SDS011;11634;42.734;23.298;2022-12-07T09:21:14;39.13;;;25.13;;
22937;SDS011;11634;42.734;23.298;2022-12-07T09:23:41;42.85;;;24.67;;
22937;SDS011;11634;42.734;23.298;2022-12-07T09:26:07;43.13;;;26.08;;
22937;SDS011;11634;42.734;23.298;2022-12-07T09:28:33;44.45;;;26.65;;
22937;SDS011;11634;42.734;23.298;2022-12-07T09:31:00;53.95;;;28.38;;
22937;SDS011;11634;42.734;23.298;2022-12-07T09:33:28;42.97;;;24.83;;
22937;SDS011;11634;42.734;23.298;2022-12-07T09:35:56;45.83;;;27.70;;
22937;SDS011;11634;42.734;23.298;2022-12-07T09:38:24;41.47;;;25.55;;
22937;SDS011;11634;42.734;23.298;2022-12-07T09:40:51;50.15;;;28.75;;
22937;SDS011;11634;42.734;23.298;2022-12-07T09:43:21;46.25;;;29.33;;
22937;SDS011;11634;42.734;23.298;2022-12-07T09:45:53;44.17;;;29.25;;
22937;SDS011;11634;42.734;23.298;2022-12-07T09:48:32;44.45;;;27.45;;
22937;SDS011;11634;42.734;23.298;2022-12-07T09:51:18;44.08;;;27.77;;
22937;SDS011;11634;42.734;23.298;2022-12-07T09:53:56;51.50;;;30.50;;
22937;SDS011;11634;42.734;23.298;2022-12-07T09:56:24;42.85;;;28.20;;
22937;SDS011;11634;42.734;23.298;2022-12-07T09:58:51;46.78;;;28.98;;
22937;SDS011;11634;42.734;23.298;2022-12-07T10:01:27;48.92;;;29.98;;
22937;SDS011;11634;42.734;23.298;2022-12-07T10:03:55;47.20;;;30.50;;
22937;SDS011;11634;42.734;23.298;2022-12-07T10:06:32;45.75;;;30.30;;
22937;SDS011;11634;42.734;23.298;2022-12-07T10:08:57;44.50;;;28.42;;
22937;SDS011;11634;42.734;23.298;2022-12-07T10:11:24;43.13;;;29.83;;
22937;SDS011;11634;42.734;23.298;2022-12-07T10:13:53;41.15;;;27.00;;
22937;SDS011;11634;42.734;23.298;2022-12-07T10:18:50;51.53;;;28.63;;
22937;SDS011;11634;42.734;23.298;2022-12-07T10:21:18;44.92;;;28.65;;
22937;SDS011;11634;42.734;23.298;2022-12-07T10:24:03;40.47;;;26.90;;
22937;SDS011;11634;42.734;23.298;2022-12-07T10:26:31;36.78;;;23.77;;
22937;SDS011;11634;42.734;23.298;2022-12-07T10:29:00;46.78;;;28.05;;
22937;SDS011;11634;42.734;23.298;2022-12-07T10:31:38;43.70;;;26.15;;
22937;SDS011;11634;42.734;23.298;2022-12-07T10:34:24;40.30;;;25.95;;
22937;SDS011;11634;42.734;23.298;2022-12-07T10:36:52;48.60;;;27.50;;
22937;SDS011;11634;42.734;23.298;2022-12-07T10:39:23;42.10;;;27.35;;
22937;SDS011;11634;42.734;23.298;2022-12-07T10:41:58;43.97;;;27.63;;
22937;SDS011;11634;42.734;23.298;2022-12-07T10:44:30;41.88;;;28.55;;
22937;SDS011;11634;42.734;23.298;2022-12-07T11:06:54;35.45;;;23.00;;
22937;SDS011;11634;42.734;23.298;2022-12-07T11:18:36;31.13;;;19.25;;
22937;SDS011;11634;42.734;23.298;2022-12-07T11:21:27;32.63;;;19.20;;
22937;SDS011;11634;42.734;23.298;2022-12-07T11:24:17;33.85;;;19.90;;
22937;SDS011;11634;42.734;23.298;2022-12-07T11:27:14;31.48;;;20.05;;
22937;SDS011;11634;42.734;23.298;2022-12-07T11:32:43;31.02;;;19.98;;
22937;SDS011;11634;42.734;23.298;2022-12-07T11:38:00;29.73;;;19.50;;
22937;SDS011;11634;42.734;23.298;2022-12-07T11:40:34;27.55;;;17.27;;
22937;SDS011;11634;42.734;23.298;2022-12-07T11:45:54;28.85;;;18.75;;
22937;SDS011;11634;42.734;23.298;2022-12-07T11:48:44;29.75;;;19.52;;
22937;SDS011;11634;42.734;23.298;2022-12-07T11:51:16;29.80;;;19.42;;
22937;SDS011;11634;42.734;23.298;2022-12-07T11:53:53;27.05;;;19.40;;
22937;SDS011;11634;42.734;23.298;2022-12-07T11:56:23;30.95;;;19.38;;
22937;SDS011;11634;42.734;23.298;2022-12-07T11:59:56;30.30;;;18.67;;
22937;SDS011;11634;42.734;23.298;2022-12-07T12:04:58;29.55;;;17.20;;
22937;SDS011;11634;42.734;23.298;2022-12-07T12:07:31;32.50;;;17.80;;
22937;SDS011;11634;42.734;23.298;2022-12-07T12:10:05;29.33;;;18.48;;
22937;SDS011;11634;42.734;23.298;2022-12-07T12:12:47;31.85;;;18.27;;
22937;SDS011;11634;42.734;23.298;2022-12-07T12:20:57;29.88;;;18.15;;
22937;SDS011;11634;42.734;23.298;2022-12-07T12:23:43;27.23;;;17.58;;
22937;SDS011;11634;42.734;23.298;2022-12-07T12:26:21;19.30;;;14.80;;
22937;SDS011;11634;42.734;23.298;2022-12-07T12:28:56;23.55;;;14.65;;
22937;SDS011;11634;42.734;23.298;2022-12-07T12:33:54;21.67;;;14.82;;
22937;SDS011;11634;42.734;23.298;2022-12-07T12:36:27;26.13;;;15.77;;
22937;SDS011;11634;42.734;23.298;2022-12-07T12:39:09;23.73;;;15.27;;
22937;SDS011;11634;42.734;23.298;2022-12-07T12:46:47;24.38;;;16.15;;
22937;SDS011;11634;42.734;23.298;2022-12-07T12:51:42;22.80;;;14.18;;
22937;SDS011;11634;42.734;23.298;2022-12-07T12:54:18;24.65;;;14.75;;
22937;SDS011;11634;42.734;23.298;2022-12-07T13:18:04;18.75;;;11.95;;
22937;SDS011;11634;42.734;23.298;2022-12-07T13:20:52;23.52;;;12.60;;
22937;SDS011;11634;42.734;23.298;2022-12-07T13:23:22;18.65;;;13.02;;
22937;SDS011;11634;42.734;23.298;2022-12-07T13:26:02;23.70;;;13.52;;
22937;SDS011;11634;42.734;23.298;2022-12-07T13:28:38;19.65;;;13.30;;
22937;SDS011;11634;42.734;23.298;2022-12-07T13:31:23;19.30;;;13.48;;
22937;SDS011;11634;42.734;23.298;2022-12-07T13:33:57;27.23;;;15.20;;
22937;SDS011;11634;42.734;23.298;2022-12-07T13:36:30;21.88;;;14.38;;
22937;SDS011;11634;42.734;23.298;2022-12-07T13:41:43;25.27;;;16.25;;
22937;SDS011;11634;42.734;23.298;2022-12-07T13:44:13;22.15;;;14.20;;
22937;SDS011;11634;42.734;23.298;2022-12-07T13:49:16;21.17;;;14.88;;
22937;SDS011;11634;42.734;23.298;2022-12-07T13:51:50;24.17;;;15.88;;
22937;SDS011;11634;42.734;23.298;2022-12-07T13:54:17;19.45;;;13.43;;
22937;SDS011;11634;42.734;23.298;2022-12-07T13:56:52;22.05;;;14.23;;
22937;SDS011;11634;42.734;23.298;2022-12-07T13:59:20;23.02;;;14.82;;
22937;SDS011;11634;42.734;23.298;2022-12-07T14:01:48;22.98;;;14.35;;
22937;SDS011;11634;42.734;23.298;2022-12-07T14:04:17;23.70;;;14.43;;
22937;SDS011;11634;42.734;23.298;2022-12-07T14:07:01;22.52;;;14.40;;
22937;SDS011;11634;42.734;23.298;2022-12-07T14:09:53;22.10;;;15.60;;
22937;SDS011;11634;42.734;23.298;2022-12-07T14:12:24;24.27;;;16.45;;
22937;SDS011;11634;42.734;23.298;2022-12-07T14:14:51;23.10;;;15.20;;
22937;SDS011;11634;42.734;23.298;2022-12-07T14:17:18;25.95;;;16.02;;
22937;SDS011;11634;42.734;23.298;2022-12-07T14:22:26;27.05;;;17.10;;
22937;SDS011;11634;42.734;23.298;2022-12-07T14:24:58;23.55;;;15.98;;
22937;SDS011;11634;42.734;23.298;2022-12-07T14:27:29;29.63;;;17.00;;
22937;SDS011;11634;42.734;23.298;2022-12-07T14:29:59;28.08;;;15.93;;
22937;SDS011;11634;42.734;23.298;2022-12-07T14:32:29;24.90;;;16.35;;
22937;SDS011;11634;42.734;23.298;2022-12-07T14:35:07;30.17;;;17.92;;
22937;SDS011;11634;42.734;23.298;2022-12-07T14:37:36;22.02;;;16.25;;
22937;SDS011;11634;42.734;23.298;2022-12-07T14:40:03;31.85;;;16.15;;
22937;SDS011;11634;42.734;23.298;2022-12-07T14:42:32;26.52;;;15.77;;
22937;SDS011;11634;42.734;23.298;2022-12-07T14:45:01;37.35;;;22.23;;
22937;SDS011;11634;42.734;23.298;2022-12-07T14:47:28;31.88;;;20.85;;
22937;SDS011;11634;42.734;23.298;2022-12-07T14:49:53;32.92;;;20.80;;
22937;SDS011;11634;42.734;23.298;2022-12-07T14:52:19;28.80;;;16.83;;
22937;SDS011;11634;42.734;23.298;2022-12-07T14:54:48;35.03;;;19.33;;
22937;SDS011;11634;42.734;23.298;2022-12-07T14:57:13;47.65;;;23.77;;
22937;SDS011;11634;42.734;23.298;2022-12-07T14:59:39;45.28;;;30.13;;
22937;SDS011;11634;42.734;23.298;2022-12-07T15:02:05;42.92;;;26.55;;
22937;SDS011;11634;42.734;23.298;2022-12-07T15:04:32;31.33;;;21.30;;
22937;SDS011;11634;42.734;23.298;2022-12-07T15:06:58;36.22;;;18.35;;
22937;SDS011;11634;42.734;23.298;2022-12-07T15:09:26;27.42;;;15.25;;
22937;SDS011;11634;42.734;23.298;2022-12-07T15:11:51;25.08;;;16.48;;
22937;SDS011;11634;42.734;23.298;2022-12-07T15:14:17;30.80;;;14.23;;
22937;SDS011;11634;42.734;23.298;2022-12-07T15:16:43;30.45;;;17.65;;
22937;SDS011;11634;42.734;23.298;2022-12-07T15:19:10;37.28;;;19.17;;
22937;SDS011;11634;42.734;23.298;2022-12-07T15:21:39;35.28;;;20.98;;
22937;SDS011;11634;42.734;23.298;2022-12-07T15:24:07;37.25;;;22.17;;
22937;SDS011;11634;42.734;23.298;2022-12-07T15:26:34;41.40;;;23.65;;
22937;SDS011;11634;42.734;23.298;2022-12-07T15:28:59;41.45;;;23.45;;
22937;SDS011;11634;42.734;23.298;2022-12-07T15:31:26;41.92;;;23.85;;
22937;SDS011;11634;42.734;23.298;2022-12-07T15:33:51;43.47;;;25.65;;
22937;SDS011;11634;42.734;23.298;2022-12-07T15:36:22;43.38;;;25.08;;
22937;SDS011;11634;42.734;23.298;2022-12-07T15:38:49;42.60;;;26.65;;
22937;SDS011;11634;42.734;23.298;2022-12-07T15:41:17;50.72;;;26.70;;
22937;SDS011;11634;42.734;23.298;2022-12-07T15:43:44;44.13;;;26.33;;
22937;SDS011;11634;42.734;23.298;2022-12-07T15:46:37;41.72;;;25.73;;
22937;SDS011;11634;42.734;23.298;2022-12-07T15:49:11;42.25;;;25.30;;
22937;SDS011;11634;42.734;23.298;2022-12-07T15:51:38;41.03;;;25.35;;
22937;SDS011;11634;42.734;23.298;2022-12-07T15:54:04;48.95;;;24.63;;
22937;SDS011;11634;42.734;23.298;2022-12-07T15:56:31;55.53;;;29.50;;
22937;SDS011;11634;42.734;23.298;2022-12-07T15:58:59;71.75;;;36.53;;
22937;SDS011;11634;42.734;23.298;2022-12-07T16:01:26;77.70;;;41.90;;
22937;SDS011;11634;42.734;23.298;2022-12-07T16:03:52;58.60;;;36.33;;
22937;SDS011;11634;42.734;23.298;2022-12-07T16:06:19;46.58;;;29.60;;
22937;SDS011;11634;42.734;23.298;2022-12-07T16:08:45;57.25;;;33.20;;
22937;SDS011;11634;42.734;23.298;2022-12-07T16:11:12;55.65;;;31.90;;
22937;SDS011;11634;42.734;23.298;2022-12-07T16:13:38;45.33;;;23.20;;
22937;SDS011;11634;42.734;23.298;2022-12-07T16:16:05;47.05;;;25.85;;
22937;SDS011;11634;42.734;23.298;2022-12-07T16:18:33;49.17;;;26.13;;
22937;SDS011;11634;42.734;23.298;2022-12-07T16:20:59;44.00;;;23.52;;
22937;SDS011;11634;42.734;23.298;2022-12-07T16:23:24;38.45;;;23.08;;
22937;SDS011;11634;42.734;23.298;2022-12-07T16:25:50;31.20;;;20.45;;